TKJ6JQ LTCP-LTAC
Flight info
| Callsign | TKJ6JQ |
|---|---|
| Flight time | 1h 15m |
| Altitude | 36000 |
| Route | SONSU W103 ERH UW73 GEM UG8 GOBIT |
| Aircraft | A21N/M-SDE3FGHIRWY/LB1 |
Departure
| Time | 2026-05-06 07:14 |
|---|---|
| Airport | Adıyaman Airport (LTCP) |
Arrival
| Time | 2026-05-06 08:30 |
|---|---|
| Airport | Esenboğa International Airport (LTAC) |
| Time | Latitude | Longitude | Altitude | Speed | Heading |
|---|---|---|---|---|---|
| 2026-05-06 06:58 | 37.73570 | 38.47065 | 2211 ft | 0 kts | 318° |
| 2026-05-06 07:06 | 37.73569 | 38.47066 | 2211 ft | 1 kts | 318° |
| 2026-05-06 07:06 | 37.73559 | 38.47078 | 2211 ft | 2 kts | 319° |
| 2026-05-06 07:06 | 37.73547 | 38.47090 | 2211 ft | 2 kts | 319° |
| 2026-05-06 07:07 | 37.73535 | 38.47099 | 2211 ft | 2 kts | 360° |
| 2026-05-06 07:07 | 37.73521 | 38.47094 | 2212 ft | 1 kts | 42° |
| 2026-05-06 07:07 | 37.73517 | 38.47089 | 2212 ft | 1 kts | 53° |
| 2026-05-06 07:07 | 37.73515 | 38.47086 | 2212 ft | 0 kts | 49° |
| 2026-05-06 07:10 | 37.73523 | 38.47096 | 2212 ft | 3 kts | 49° |
| 2026-05-06 07:10 | 37.73546 | 38.47136 | 2210 ft | 4 kts | 79° |
| 2026-05-06 07:10 | 37.73527 | 38.47182 | 2211 ft | 6 kts | 130° |
| 2026-05-06 07:10 | 37.73497 | 38.47219 | 2211 ft | 6 kts | 138° |
| 2026-05-06 07:11 | 37.73461 | 38.47256 | 2211 ft | 6 kts | 139° |
| 2026-05-06 07:11 | 37.73433 | 38.47306 | 2211 ft | 7 kts | 103° |
| 2026-05-06 07:11 | 37.73455 | 38.47373 | 2209 ft | 10 kts | 52° |
| 2026-05-06 07:11 | 37.73510 | 38.47455 | 2206 ft | 14 kts | 49° |
| 2026-05-06 07:12 | 37.73582 | 38.47561 | 2202 ft | 17 kts | 49° |
| 2026-05-06 07:12 | 37.73663 | 38.47684 | 2197 ft | 19 kts | 50° |
| 2026-05-06 07:12 | 37.73760 | 38.47820 | 2187 ft | 18 kts | 48° |
| 2026-05-06 07:12 | 37.73798 | 38.47936 | 2180 ft | 14 kts | 89° |
| 2026-05-06 07:13 | 37.73831 | 38.47983 | 2176 ft | 5 kts | 357° |
| 2026-05-06 07:13 | 37.73850 | 38.47951 | 2177 ft | 3 kts | 260° |
| 2026-05-06 07:13 | 37.73845 | 38.47939 | 2178 ft | 0 kts | 235° |
| 2026-05-06 07:13 | 37.73833 | 38.47918 | 2180 ft | 18 kts | 231° |
| 2026-05-06 07:14 | 37.73582 | 38.47562 | 2202 ft | 87 kts | 230° |
| 2026-05-06 07:14 | 37.73050 | 38.46786 | 2216 ft | 145 kts | 230° |
| 2026-05-06 07:14 | 37.72313 | 38.45670 | 2430 ft | 173 kts | 232° |
| 2026-05-06 07:14 | 37.71583 | 38.44514 | 3091 ft | 171 kts | 229° |
| 2026-05-06 07:15 | 37.70780 | 38.43417 | 3734 ft | 173 kts | 226° |
| 2026-05-06 07:15 | 37.69966 | 38.42268 | 4277 ft | 181 kts | 229° |
| 2026-05-06 07:15 | 37.69098 | 38.41024 | 4651 ft | 196 kts | 230° |
| 2026-05-06 07:15 | 37.68189 | 38.39675 | 5015 ft | 213 kts | 230° |
| 2026-05-06 07:16 | 37.67365 | 38.38052 | 5362 ft | 228 kts | 251° |
| 2026-05-06 07:16 | 37.67217 | 38.35988 | 5637 ft | 249 kts | 282° |
| 2026-05-06 07:16 | 37.67954 | 38.33972 | 6069 ft | 262 kts | 312° |
| 2026-05-06 07:16 | 37.69346 | 38.32437 | 6662 ft | 271 kts | 322° |
| 2026-05-06 07:17 | 37.70729 | 38.31007 | 7390 ft | 274 kts | 321° |
| 2026-05-06 07:17 | 37.71712 | 38.29962 | 7929 ft | 276 kts | 320° |
| 2026-05-06 07:17 | 37.73268 | 38.28536 | 8653 ft | 278 kts | 336° |
| 2026-05-06 07:17 | 37.75147 | 38.28070 | 9365 ft | 280 kts | 3° |
| 2026-05-06 07:18 | 37.77012 | 38.28715 | 10078 ft | 283 kts | 28° |
| 2026-05-06 07:18 | 37.78645 | 38.30121 | 10626 ft | 293 kts | 34° |
| 2026-05-06 07:18 | 37.80333 | 38.31685 | 10998 ft | 308 kts | 34° |
| 2026-05-06 07:18 | 37.82098 | 38.33312 | 11584 ft | 314 kts | 34° |
| 2026-05-06 07:19 | 37.83855 | 38.34919 | 12219 ft | 318 kts | 34° |
| 2026-05-06 07:19 | 37.85668 | 38.36563 | 12843 ft | 322 kts | 32° |
| 2026-05-06 07:19 | 37.87664 | 38.37789 | 13373 ft | 323 kts | 10° |
| 2026-05-06 07:19 | 37.89887 | 38.37814 | 13971 ft | 321 kts | 345° |
| 2026-05-06 07:20 | 37.92002 | 38.36897 | 14617 ft | 320 kts | 336° |
| 2026-05-06 07:20 | 37.94063 | 38.35883 | 15207 ft | 324 kts | 336° |
| 2026-05-06 07:20 | 37.96175 | 38.34859 | 15794 ft | 327 kts | 336° |
| 2026-05-06 07:20 | 37.98329 | 38.33841 | 16390 ft | 330 kts | 336° |
| 2026-05-06 07:21 | 38.00476 | 38.32834 | 16959 ft | 333 kts | 336° |
| 2026-05-06 07:21 | 38.02665 | 38.31809 | 17521 ft | 335 kts | 336° |
| 2026-05-06 07:21 | 38.04856 | 38.30783 | 18075 ft | 338 kts | 336° |
| 2026-05-06 07:21 | 38.07048 | 38.29753 | 18599 ft | 341 kts | 336° |
| 2026-05-06 07:22 | 38.09280 | 38.28706 | 19110 ft | 344 kts | 335° |
| 2026-05-06 07:22 | 38.11544 | 38.27642 | 19613 ft | 347 kts | 335° |
| 2026-05-06 07:22 | 38.13828 | 38.26569 | 20114 ft | 350 kts | 335° |
| 2026-05-06 07:22 | 38.16105 | 38.25498 | 20592 ft | 353 kts | 335° |
| 2026-05-06 07:23 | 38.18406 | 38.24415 | 21088 ft | 355 kts | 334° |
| 2026-05-06 07:23 | 38.20752 | 38.23308 | 21561 ft | 358 kts | 334° |
| 2026-05-06 07:23 | 38.23071 | 38.22214 | 22026 ft | 360 kts | 334° |
| 2026-05-06 07:23 | 38.25434 | 38.21097 | 22496 ft | 362 kts | 334° |
| 2026-05-06 07:24 | 38.27787 | 38.19987 | 22955 ft | 364 kts | 334° |
| 2026-05-06 07:24 | 38.28826 | 38.19496 | 23154 ft | 365 kts | 334° |
| 2026-05-06 07:24 | 38.31204 | 38.18372 | 23586 ft | 368 kts | 334° |
| 2026-05-06 07:24 | 38.33626 | 38.17225 | 24004 ft | 370 kts | 334° |
| 2026-05-06 07:25 | 38.36028 | 38.16087 | 24418 ft | 373 kts | 334° |
| 2026-05-06 07:25 | 38.38465 | 38.14931 | 24800 ft | 376 kts | 334° |
| 2026-05-06 07:25 | 38.40939 | 38.13758 | 25206 ft | 378 kts | 334° |
| 2026-05-06 07:25 | 38.43385 | 38.12578 | 25570 ft | 379 kts | 331° |
| 2026-05-06 07:26 | 38.45607 | 38.10829 | 25874 ft | 371 kts | 313° |
| 2026-05-06 07:26 | 38.47226 | 38.08336 | 26234 ft | 363 kts | 296° |
| 2026-05-06 07:26 | 38.48294 | 38.05461 | 26624 ft | 361 kts | 289° |
| 2026-05-06 07:26 | 38.49288 | 38.02531 | 26957 ft | 363 kts | 289° |
| 2026-05-06 07:27 | 38.50290 | 37.99574 | 27285 ft | 365 kts | 289° |
| 2026-05-06 07:27 | 38.51306 | 37.96582 | 27639 ft | 367 kts | 289° |
| 2026-05-06 07:27 | 38.52326 | 37.93581 | 27970 ft | 369 kts | 289° |
| 2026-05-06 07:27 | 38.53343 | 37.90593 | 28290 ft | 371 kts | 289° |
| 2026-05-06 07:28 | 38.54368 | 37.87578 | 28607 ft | 372 kts | 290° |
| 2026-05-06 07:28 | 38.55392 | 37.84564 | 28950 ft | 373 kts | 290° |
| 2026-05-06 07:28 | 38.57470 | 37.78449 | 29579 ft | 377 kts | 290° |
| 2026-05-06 07:29 | 38.58514 | 37.75374 | 29873 ft | 378 kts | 290° |
| 2026-05-06 07:29 | 38.59548 | 37.72325 | 30153 ft | 380 kts | 290° |
| 2026-05-06 07:29 | 38.60606 | 37.69200 | 30430 ft | 382 kts | 290° |
| 2026-05-06 07:29 | 38.61658 | 37.66090 | 30696 ft | 384 kts | 290° |
| 2026-05-06 07:30 | 38.62706 | 37.62985 | 30938 ft | 386 kts | 290° |
| 2026-05-06 07:30 | 38.63781 | 37.59801 | 31144 ft | 388 kts | 290° |
| 2026-05-06 07:30 | 38.64841 | 37.56654 | 31354 ft | 390 kts | 290° |
| 2026-05-06 07:30 | 38.65910 | 37.53481 | 31549 ft | 392 kts | 290° |
| 2026-05-06 07:31 | 38.66993 | 37.50262 | 31717 ft | 394 kts | 290° |
| 2026-05-06 07:31 | 38.68069 | 37.47057 | 31901 ft | 395 kts | 290° |
| 2026-05-06 07:31 | 38.69156 | 37.43819 | 32101 ft | 397 kts | 290° |
| 2026-05-06 07:31 | 38.70256 | 37.40535 | 32294 ft | 399 kts | 290° |
| 2026-05-06 07:32 | 38.71348 | 37.37273 | 32477 ft | 401 kts | 290° |
| 2026-05-06 07:32 | 38.72442 | 37.34003 | 32669 ft | 402 kts | 290° |
| 2026-05-06 07:32 | 38.73545 | 37.30697 | 32861 ft | 404 kts | 290° |
| 2026-05-06 07:32 | 38.74661 | 37.27354 | 33049 ft | 406 kts | 290° |
| 2026-05-06 07:33 | 38.75769 | 37.24026 | 33220 ft | 408 kts | 290° |
| 2026-05-06 07:33 | 38.76886 | 37.20665 | 33408 ft | 410 kts | 290° |
| 2026-05-06 07:33 | 38.78003 | 37.17305 | 33579 ft | 412 kts | 290° |
| 2026-05-06 07:33 | 38.79123 | 37.13932 | 33786 ft | 413 kts | 290° |
| 2026-05-06 07:34 | 38.80243 | 37.10577 | 34022 ft | 413 kts | 290° |
| 2026-05-06 07:34 | 38.81377 | 37.07176 | 34270 ft | 412 kts | 291° |
| 2026-05-06 07:34 | 38.82496 | 37.03814 | 34475 ft | 413 kts | 291° |
| 2026-05-06 07:34 | 38.83621 | 37.00428 | 34652 ft | 415 kts | 291° |
| 2026-05-06 07:35 | 38.84750 | 36.97024 | 34833 ft | 416 kts | 291° |
| 2026-05-06 07:35 | 38.85884 | 36.93599 | 35032 ft | 417 kts | 291° |
| 2026-05-06 07:35 | 38.87012 | 36.90185 | 35224 ft | 418 kts | 291° |
| 2026-05-06 07:35 | 38.88147 | 36.86746 | 35400 ft | 419 kts | 291° |
| 2026-05-06 07:36 | 38.89273 | 36.83331 | 35583 ft | 420 kts | 291° |
| 2026-05-06 07:36 | 38.90414 | 36.79867 | 35746 ft | 421 kts | 291° |
| 2026-05-06 07:36 | 38.91551 | 36.76409 | 35912 ft | 421 kts | 291° |
| 2026-05-06 07:36 | 38.92680 | 36.72969 | 36021 ft | 423 kts | 291° |
| 2026-05-06 07:37 | 38.94959 | 36.66018 | 36028 ft | 424 kts | 291° |
| 2026-05-06 07:37 | 38.97249 | 36.59015 | 36051 ft | 424 kts | 291° |
| 2026-05-06 07:38 | 38.99510 | 36.52081 | 36058 ft | 424 kts | 291° |
| 2026-05-06 07:38 | 39.01790 | 36.45079 | 36061 ft | 424 kts | 291° |
| 2026-05-06 07:39 | 39.04049 | 36.38113 | 36056 ft | 425 kts | 291° |
| 2026-05-06 07:39 | 39.06310 | 36.31125 | 36058 ft | 425 kts | 291° |
| 2026-05-06 07:40 | 39.08575 | 36.24108 | 36057 ft | 425 kts | 291° |
| 2026-05-06 07:40 | 39.10829 | 36.17106 | 36060 ft | 424 kts | 291° |
| 2026-05-06 07:41 | 39.13084 | 36.10078 | 36064 ft | 425 kts | 291° |
| 2026-05-06 07:41 | 39.15333 | 36.03056 | 36073 ft | 424 kts | 291° |
| 2026-05-06 07:42 | 39.17466 | 35.96008 | 36075 ft | 425 kts | 290° |
| 2026-05-06 07:42 | 39.19561 | 35.88908 | 36070 ft | 425 kts | 290° |
| 2026-05-06 07:43 | 39.21666 | 35.81771 | 36051 ft | 425 kts | 290° |
| 2026-05-06 07:43 | 39.23761 | 35.74662 | 36024 ft | 425 kts | 290° |
| 2026-05-06 07:44 | 39.25843 | 35.67580 | 36022 ft | 425 kts | 290° |
| 2026-05-06 07:44 | 39.27934 | 35.60451 | 36029 ft | 425 kts | 290° |
| 2026-05-06 07:45 | 39.30016 | 35.53334 | 36053 ft | 425 kts | 290° |
| 2026-05-06 07:45 | 39.32087 | 35.46235 | 36055 ft | 425 kts | 290° |
| 2026-05-06 07:46 | 39.34164 | 35.39095 | 36068 ft | 426 kts | 291° |
| 2026-05-06 07:46 | 39.36239 | 35.31939 | 36075 ft | 426 kts | 290° |
| 2026-05-06 07:47 | 39.38298 | 35.24820 | 36070 ft | 426 kts | 290° |
| 2026-05-06 07:47 | 39.40360 | 35.17679 | 36068 ft | 426 kts | 290° |
| 2026-05-06 07:48 | 39.42475 | 35.10530 | 36064 ft | 426 kts | 291° |
| 2026-05-06 07:48 | 39.44575 | 35.03437 | 36071 ft | 426 kts | 291° |
| 2026-05-06 07:49 | 39.46690 | 34.96258 | 36073 ft | 426 kts | 291° |
| 2026-05-06 07:49 | 39.48786 | 34.89112 | 36066 ft | 425 kts | 291° |
| 2026-05-06 07:50 | 39.50869 | 34.81994 | 36077 ft | 425 kts | 291° |
| 2026-05-06 07:50 | 39.52952 | 34.74853 | 36067 ft | 425 kts | 291° |
| 2026-05-06 07:51 | 39.55031 | 34.67704 | 36075 ft | 425 kts | 291° |
| 2026-05-06 07:51 | 39.56079 | 34.64093 | 35885 ft | 425 kts | 291° |
| 2026-05-06 07:51 | 39.57102 | 34.60564 | 35671 ft | 422 kts | 291° |
| 2026-05-06 07:52 | 39.58134 | 34.56997 | 35400 ft | 419 kts | 292° |
| 2026-05-06 07:52 | 39.59137 | 34.53526 | 35017 ft | 415 kts | 292° |
| 2026-05-06 07:52 | 39.60142 | 34.50035 | 34542 ft | 414 kts | 292° |
| 2026-05-06 07:52 | 39.61146 | 34.46546 | 33985 ft | 414 kts | 292° |
| 2026-05-06 07:53 | 39.62144 | 34.43078 | 33449 ft | 414 kts | 293° |
| 2026-05-06 07:53 | 39.63146 | 34.39596 | 32974 ft | 414 kts | 293° |
| 2026-05-06 07:53 | 39.64153 | 34.36086 | 32548 ft | 411 kts | 293° |
| 2026-05-06 07:53 | 39.65143 | 34.32635 | 32147 ft | 410 kts | 293° |
| 2026-05-06 07:54 | 39.66121 | 34.29221 | 31695 ft | 408 kts | 293° |
| 2026-05-06 07:54 | 39.67104 | 34.25785 | 31217 ft | 404 kts | 293° |
| 2026-05-06 07:54 | 39.68072 | 34.22394 | 30796 ft | 399 kts | 294° |
| 2026-05-06 07:54 | 39.69022 | 34.19062 | 30330 ft | 394 kts | 294° |
| 2026-05-06 07:55 | 39.69961 | 34.15765 | 29920 ft | 388 kts | 294° |
| 2026-05-06 07:55 | 39.70890 | 34.12501 | 29523 ft | 381 kts | 294° |
| 2026-05-06 07:55 | 39.71794 | 34.09319 | 29141 ft | 375 kts | 294° |
| 2026-05-06 07:55 | 39.72685 | 34.06180 | 28744 ft | 369 kts | 294° |
| 2026-05-06 07:56 | 39.73568 | 34.03068 | 28318 ft | 365 kts | 294° |
| 2026-05-06 07:56 | 39.74426 | 34.00032 | 27907 ft | 361 kts | 294° |
| 2026-05-06 07:56 | 39.75284 | 33.96997 | 27463 ft | 357 kts | 294° |
| 2026-05-06 07:56 | 39.76145 | 33.93956 | 27014 ft | 354 kts | 294° |
| 2026-05-06 07:57 | 39.76915 | 33.90953 | 26571 ft | 354 kts | 289° |
| 2026-05-06 07:57 | 39.77406 | 33.87836 | 26119 ft | 354 kts | 282° |
| 2026-05-06 07:57 | 39.77606 | 33.84666 | 25637 ft | 356 kts | 276° |
| 2026-05-06 07:57 | 39.77623 | 33.81447 | 25172 ft | 354 kts | 275° |
| 2026-05-06 07:58 | 39.77610 | 33.78252 | 24711 ft | 352 kts | 274° |
| 2026-05-06 07:58 | 39.77595 | 33.75115 | 24237 ft | 351 kts | 274° |
| 2026-05-06 07:58 | 39.77580 | 33.71977 | 23782 ft | 349 kts | 274° |
| 2026-05-06 07:58 | 39.77565 | 33.68828 | 23344 ft | 347 kts | 274° |
| 2026-05-06 07:59 | 39.77551 | 33.65712 | 22915 ft | 345 kts | 274° |
| 2026-05-06 07:59 | 39.77536 | 33.62624 | 22441 ft | 344 kts | 274° |
| 2026-05-06 07:59 | 39.77522 | 33.59501 | 21993 ft | 342 kts | 274° |
| 2026-05-06 07:59 | 39.77513 | 33.56433 | 21541 ft | 341 kts | 275° |
| 2026-05-06 08:00 | 39.77843 | 33.53437 | 21086 ft | 334 kts | 289° |
| 2026-05-06 08:00 | 39.78752 | 33.50709 | 20624 ft | 329 kts | 303° |
| 2026-05-06 08:00 | 39.80056 | 33.48280 | 20183 ft | 327 kts | 308° |
| 2026-05-06 08:00 | 39.81406 | 33.45926 | 19746 ft | 327 kts | 308° |
| 2026-05-06 08:01 | 39.82760 | 33.43576 | 19305 ft | 326 kts | 308° |
| 2026-05-06 08:01 | 39.84121 | 33.41199 | 18867 ft | 325 kts | 308° |
| 2026-05-06 08:01 | 39.85447 | 33.38878 | 18445 ft | 324 kts | 308° |
| 2026-05-06 08:01 | 39.86801 | 33.36499 | 18019 ft | 323 kts | 308° |
| 2026-05-06 08:02 | 39.88116 | 33.34186 | 17605 ft | 322 kts | 307° |
| 2026-05-06 08:02 | 39.89457 | 33.31822 | 17177 ft | 321 kts | 307° |
| 2026-05-06 08:02 | 39.90764 | 33.29513 | 16767 ft | 320 kts | 307° |
| 2026-05-06 08:02 | 39.92080 | 33.27185 | 16351 ft | 320 kts | 307° |
| 2026-05-06 08:03 | 39.93385 | 33.24875 | 15937 ft | 319 kts | 307° |
| 2026-05-06 08:03 | 39.94706 | 33.22537 | 15517 ft | 318 kts | 307° |
| 2026-05-06 08:03 | 39.96000 | 33.20244 | 15105 ft | 317 kts | 307° |
| 2026-05-06 08:03 | 39.97312 | 33.17921 | 14773 ft | 313 kts | 307° |
| 2026-05-06 08:04 | 39.98576 | 33.15678 | 14622 ft | 301 kts | 307° |
| 2026-05-06 08:04 | 39.99789 | 33.13525 | 14518 ft | 289 kts | 307° |
| 2026-05-06 08:04 | 40.00953 | 33.11457 | 14401 ft | 277 kts | 307° |
| 2026-05-06 08:04 | 40.02179 | 33.09610 | 14235 ft | 265 kts | 325° |
| 2026-05-06 08:05 | 40.03850 | 33.08768 | 14103 ft | 259 kts | 355° |
| 2026-05-06 08:05 | 40.05632 | 33.09076 | 13754 ft | 262 kts | 22° |
| 2026-05-06 08:05 | 40.07172 | 33.10354 | 13404 ft | 261 kts | 36° |
| 2026-05-06 08:05 | 40.08619 | 33.11778 | 13059 ft | 260 kts | 36° |
| 2026-05-06 08:06 | 40.10059 | 33.13174 | 12724 ft | 259 kts | 36° |
| 2026-05-06 08:06 | 40.11499 | 33.14561 | 12391 ft | 258 kts | 36° |
| 2026-05-06 08:06 | 40.12940 | 33.15942 | 12063 ft | 258 kts | 36° |
| 2026-05-06 08:06 | 40.14396 | 33.17337 | 11729 ft | 257 kts | 36° |
| 2026-05-06 08:07 | 40.15827 | 33.18707 | 11404 ft | 257 kts | 36° |
| 2026-05-06 08:07 | 40.17267 | 33.20086 | 11076 ft | 256 kts | 36° |
| 2026-05-06 08:07 | 40.18700 | 33.21459 | 10754 ft | 255 kts | 37° |
| 2026-05-06 08:07 | 40.20126 | 33.22825 | 10429 ft | 254 kts | 37° |
| 2026-05-06 08:08 | 40.21552 | 33.24195 | 10112 ft | 253 kts | 37° |
| 2026-05-06 08:08 | 40.22976 | 33.25563 | 9791 ft | 253 kts | 37° |
| 2026-05-06 08:08 | 40.24384 | 33.26918 | 9480 ft | 253 kts | 37° |
| 2026-05-06 08:08 | 40.25801 | 33.28281 | 9167 ft | 251 kts | 37° |
| 2026-05-06 08:09 | 40.27243 | 33.29530 | 8838 ft | 251 kts | 23° |
| 2026-05-06 08:09 | 40.28961 | 33.29793 | 8487 ft | 249 kts | 347° |
| 2026-05-06 08:09 | 40.30490 | 33.28833 | 8173 ft | 246 kts | 317° |
| 2026-05-06 08:09 | 40.31441 | 33.27002 | 7854 ft | 243 kts | 287° |
| 2026-05-06 08:10 | 40.31575 | 33.24839 | 7536 ft | 240 kts | 257° |
| 2026-05-06 08:10 | 40.30896 | 33.22888 | 7217 ft | 237 kts | 228° |
| 2026-05-06 08:10 | 40.29615 | 33.21591 | 6917 ft | 234 kts | 207° |
| 2026-05-06 08:10 | 40.28226 | 33.20467 | 6596 ft | 235 kts | 221° |
| 2026-05-06 08:11 | 40.27290 | 33.18758 | 6298 ft | 232 kts | 251° |
| 2026-05-06 08:11 | 40.26911 | 33.16761 | 6300 ft | 222 kts | 257° |
| 2026-05-06 08:11 | 40.26593 | 33.14844 | 6212 ft | 207 kts | 258° |
| 2026-05-06 08:11 | 40.26275 | 33.13072 | 6019 ft | 196 kts | 248° |
| 2026-05-06 08:12 | 40.25497 | 33.11727 | 5854 ft | 182 kts | 222° |
| 2026-05-06 08:12 | 40.24515 | 33.10724 | 5633 ft | 171 kts | 215° |
| 2026-05-06 08:12 | 40.23578 | 33.09872 | 5389 ft | 156 kts | 214° |
| 2026-05-06 08:12 | 40.22719 | 33.09087 | 5163 ft | 149 kts | 215° |
| 2026-05-06 08:13 | 40.21871 | 33.08295 | 4978 ft | 149 kts | 216° |
| 2026-05-06 08:13 | 40.21039 | 33.07506 | 4791 ft | 148 kts | 216° |
| 2026-05-06 08:13 | 40.20207 | 33.06712 | 4606 ft | 148 kts | 216° |
| 2026-05-06 08:13 | 40.19371 | 33.05914 | 4413 ft | 148 kts | 216° |
| 2026-05-06 08:14 | 40.18531 | 33.05109 | 4205 ft | 149 kts | 217° |
| 2026-05-06 08:14 | 40.17705 | 33.04295 | 4003 ft | 148 kts | 217° |
| 2026-05-06 08:14 | 40.16885 | 33.03509 | 3849 ft | 147 kts | 216° |
| 2026-05-06 08:14 | 40.16049 | 33.02726 | 3721 ft | 147 kts | 215° |
| 2026-05-06 08:15 | 40.15213 | 33.01966 | 3564 ft | 146 kts | 216° |
| 2026-05-06 08:15 | 40.14379 | 33.01192 | 3386 ft | 146 kts | 219° |
| 2026-05-06 08:15 | 40.13518 | 33.00367 | 3458 ft | 165 kts | 216° |
| 2026-05-06 08:15 | 40.12561 | 32.99495 | 4150 ft | 170 kts | 214° |
| 2026-05-06 08:16 | 40.11565 | 32.98600 | 4780 ft | 181 kts | 214° |
| 2026-05-06 08:16 | 40.10496 | 32.97642 | 5306 ft | 193 kts | 215° |
| 2026-05-06 08:16 | 40.09370 | 32.96585 | 5670 ft | 209 kts | 216° |
| 2026-05-06 08:16 | 40.08169 | 32.95430 | 6157 ft | 219 kts | 216° |
| 2026-05-06 08:17 | 40.06929 | 32.94228 | 6561 ft | 221 kts | 216° |
| 2026-05-06 08:17 | 40.05589 | 32.93279 | 6650 ft | 220 kts | 193° |
| 2026-05-06 08:17 | 40.04081 | 32.93378 | 6656 ft | 217 kts | 159° |
| 2026-05-06 08:17 | 40.02882 | 32.94515 | 6676 ft | 216 kts | 132° |
| 2026-05-06 08:18 | 40.01923 | 32.96028 | 6678 ft | 215 kts | 127° |
| 2026-05-06 08:18 | 40.01013 | 32.97579 | 6672 ft | 216 kts | 127° |
| 2026-05-06 08:18 | 40.00103 | 32.99154 | 6670 ft | 216 kts | 126° |
| 2026-05-06 08:18 | 39.99204 | 33.00719 | 6662 ft | 216 kts | 126° |
| 2026-05-06 08:19 | 39.98290 | 33.02312 | 6660 ft | 217 kts | 126° |
| 2026-05-06 08:19 | 39.97398 | 33.03870 | 6663 ft | 217 kts | 126° |
| 2026-05-06 08:19 | 39.96693 | 33.05614 | 6640 ft | 216 kts | 102° |
| 2026-05-06 08:19 | 39.96816 | 33.07527 | 6651 ft | 216 kts | 68° |
| 2026-05-06 08:20 | 39.97729 | 33.09057 | 6673 ft | 216 kts | 41° |
| 2026-05-06 08:20 | 39.98911 | 33.10273 | 6671 ft | 216 kts | 37° |
| 2026-05-06 08:20 | 40.00135 | 33.11444 | 6660 ft | 216 kts | 36° |
| 2026-05-06 08:20 | 40.01347 | 33.12586 | 6652 ft | 216 kts | 36° |
| 2026-05-06 08:21 | 40.02573 | 33.13735 | 6650 ft | 216 kts | 36° |
| 2026-05-06 08:21 | 40.03790 | 33.14877 | 6648 ft | 216 kts | 36° |
| 2026-05-06 08:21 | 40.05014 | 33.16011 | 6649 ft | 216 kts | 34° |
| 2026-05-06 08:21 | 40.06305 | 33.17016 | 6651 ft | 216 kts | 30° |
| 2026-05-06 08:22 | 40.07635 | 33.17935 | 6650 ft | 216 kts | 25° |
| 2026-05-06 08:22 | 40.09001 | 33.18724 | 6653 ft | 217 kts | 24° |
| 2026-05-06 08:22 | 40.10407 | 33.19506 | 6654 ft | 217 kts | 23° |
| 2026-05-06 08:22 | 40.11780 | 33.20268 | 6653 ft | 217 kts | 23° |
| 2026-05-06 08:23 | 40.13187 | 33.21048 | 6588 ft | 217 kts | 23° |
| 2026-05-06 08:23 | 40.14563 | 33.21809 | 6605 ft | 216 kts | 23° |
| 2026-05-06 08:23 | 40.15955 | 33.22576 | 6630 ft | 216 kts | 23° |
| 2026-05-06 08:23 | 40.17341 | 33.23317 | 6636 ft | 216 kts | 18° |
| 2026-05-06 08:24 | 40.18823 | 33.23413 | 6459 ft | 214 kts | 340° |
| 2026-05-06 08:24 | 40.19967 | 33.22266 | 6165 ft | 211 kts | 307° |
| 2026-05-06 08:24 | 40.20783 | 33.20734 | 6040 ft | 197 kts | 306° |
| 2026-05-06 08:24 | 40.21606 | 33.19336 | 5961 ft | 195 kts | 309° |
| 2026-05-06 08:25 | 40.22454 | 33.17999 | 5940 ft | 187 kts | 311° |
| 2026-05-06 08:25 | 40.23299 | 33.16721 | 5941 ft | 186 kts | 311° |
| 2026-05-06 08:25 | 40.24153 | 33.15453 | 5945 ft | 185 kts | 312° |
| 2026-05-06 08:25 | 40.24998 | 33.14185 | 5944 ft | 185 kts | 305° |
| 2026-05-06 08:26 | 40.25353 | 33.12609 | 5899 ft | 185 kts | 266° |
| 2026-05-06 08:26 | 40.24858 | 33.11076 | 5679 ft | 185 kts | 228° |
| 2026-05-06 08:26 | 40.23876 | 33.10015 | 5461 ft | 184 kts | 214° |
| 2026-05-06 08:26 | 40.22803 | 33.09092 | 5217 ft | 183 kts | 213° |
| 2026-05-06 08:27 | 40.21759 | 33.08167 | 4989 ft | 177 kts | 215° |
| 2026-05-06 08:27 | 40.20789 | 33.07263 | 4757 ft | 165 kts | 216° |
| 2026-05-06 08:27 | 40.19903 | 33.06418 | 4505 ft | 150 kts | 216° |
| 2026-05-06 08:27 | 40.19073 | 33.05624 | 4309 ft | 148 kts | 216° |
| 2026-05-06 08:28 | 40.18236 | 33.04826 | 4133 ft | 148 kts | 216° |
| 2026-05-06 08:28 | 40.17414 | 33.04044 | 3947 ft | 147 kts | 216° |
| 2026-05-06 08:28 | 40.16586 | 33.03256 | 3751 ft | 147 kts | 216° |
| 2026-05-06 08:28 | 40.15753 | 33.02475 | 3558 ft | 146 kts | 216° |
| 2026-05-06 08:29 | 40.14938 | 33.01710 | 3368 ft | 145 kts | 216° |
| 2026-05-06 08:29 | 40.14120 | 33.00922 | 3207 ft | 144 kts | 217° |
| 2026-05-06 08:29 | 40.13331 | 33.00158 | 3138 ft | 134 kts | 214° |
| 2026-05-06 08:29 | 40.12775 | 32.99624 | 3131 ft | 70 kts | 217° |
| 2026-05-06 08:30 | 40.12474 | 32.99336 | 3128 ft | 41 kts | 217° |
| 2026-05-06 08:30 | 40.12277 | 32.99215 | 3129 ft | 26 kts | 190° |
| 2026-05-06 08:30 | 40.12106 | 32.99191 | 3129 ft | 22 kts | 185° |
| 2026-05-06 08:30 | 40.11958 | 32.99149 | 3131 ft | 21 kts | 211° |
| 2026-05-06 08:31 | 40.11855 | 32.99050 | 3129 ft | 12 kts | 213° |
| 2026-05-06 08:31 | 40.11783 | 32.99080 | 3129 ft | 11 kts | 134° |
| 2026-05-06 08:31 | 40.11714 | 32.99125 | 3130 ft | 11 kts | 173° |
| 2026-05-06 08:31 | 40.11647 | 32.99153 | 3131 ft | 5 kts | 153° |
| 2026-05-06 08:32 | 40.11638 | 32.99159 | 3131 ft | 0 kts | 153° |